Time;durP1;ratioP1;P1;durP2;ratioP2;P2;SDS_P1;SDS_P2;PMS_P1;PMS_P2;Temp;Humidity;BMP_temperature;BMP_pressure;BME280_temperature;BME280_humidity;BME280_pressure;Samples;Min_cycle;Max_cycle;Signal;HPM_P1;HPM_P2
2024/02/01 00:01:35;;;;;;;;;;;8.00;99.90;;;;;;5009654;28;19940;-93
2024/02/01 00:04:01;;;;;;;;;;;8.00;99.90;;;;;;5008127;28;19910;-92
2024/02/01 00:06:26;;;;;;;;;;;8.00;99.90;;;;;;5010823;28;19920;-92
2024/02/01 00:08:52;;;;;;;;;;;8.10;99.90;;;;;;4992412;28;19953;-91
2024/02/01 00:11:17;;;;;;;;;;;8.10;99.90;;;;;;5006569;28;19924;-92
2024/02/01 00:13:43;;;;;;;;;;;8.10;99.90;;;;;;4999986;28;19940;-92
2024/02/01 00:16:09;;;;;;;;;;;8.10;99.90;;;;;;5009233;28;20415;-91
2024/02/01 00:18:34;;;;;;;;;;;8.10;99.90;;;;;;5014464;28;19916;-92
2024/02/01 00:21:00;;;;;;;;;;;8.10;99.90;;;;;;5020707;28;19910;-92
2024/02/01 00:23:25;;;;;;;;;;;8.20;99.90;;;;;;5000683;28;19914;-92
2024/02/01 00:25:51;;;;;;;;;;;8.20;99.90;;;;;;4995711;28;19932;-92
2024/02/01 00:28:17;;;;;;;;;;;8.20;99.90;;;;;;5024091;28;19914;-92
2024/02/01 00:30:42;;;;;;;;;;;8.20;99.90;;;;;;5014645;28;19913;-92
2024/02/01 00:33:08;;;;;;;;;;;8.20;99.90;;;;;;5011514;28;19968;-92
2024/02/01 00:35:33;;;;;;;;;;;8.30;99.90;;;;;;4995635;28;19913;-92
2024/02/01 00:37:59;;;;;;;;;;;8.30;99.90;;;;;;5014054;28;20004;-92
2024/02/01 00:40:24;;;;;;;;;;;8.20;99.90;;;;;;5012229;28;20025;-92
2024/02/01 00:42:50;;;;;;;;;;;8.30;99.90;;;;;;5007371;28;19909;-93
2024/02/01 00:45:16;;;;;;;;;;;8.20;99.90;;;;;;4991286;28;19918;-92
2024/02/01 00:47:46;;;;;;;;;;;8.20;99.90;;;;;;5009766;28;19913;-92
2024/02/01 00:50:14;;;;;;;;;;;8.10;99.90;;;;;;5013214;28;20385;-90
2024/02/01 00:52:39;;;;;;;;;;;8.10;99.90;;;;;;5026007;28;19920;-93
2024/02/01 00:55:06;;;;;;;;;;;8.00;99.90;;;;;;5004363;28;19929;-92
2024/02/01 00:57:33;;;;;;;;;;;8.00;99.90;;;;;;5014132;28;20483;-92
2024/02/01 00:59:58;;;;;;;;;;;8.00;99.90;;;;;;5009776;28;19964;-92
2024/02/01 01:02:23;;;;;;;;;;;8.00;99.90;;;;;;5023534;28;19918;-91
2024/02/01 01:04:49;;;;;;;;;;;8.00;99.90;;;;;;5013484;28;19914;-91
2024/02/01 01:07:14;;;;;;;;;;;7.90;99.90;;;;;;5013143;28;21727;-92
2024/02/01 01:09:40;;;;;;;;;;;8.00;99.90;;;;;;5012625;28;19945;-93
2024/02/01 01:12:06;;;;;;;;;;;8.00;99.90;;;;;;5011281;28;19921;-91
2024/02/01 01:14:31;;;;;;;;;;;7.90;99.90;;;;;;5009977;28;19948;-92
2024/02/01 01:16:57;;;;;;;;;;;7.80;99.90;;;;;;5011808;28;19940;-91
2024/02/01 01:19:22;;;;;;;;;;;7.80;99.90;;;;;;5029702;28;19948;-91
2024/02/01 01:21:48;;;;;;;;;;;7.80;99.90;;;;;;5012585;28;19909;-91
2024/02/01 01:24:13;;;;;;;;;;;7.80;99.90;;;;;;4994829;28;19909;-92
2024/02/01 01:26:40;;;;;;;;;;;7.80;99.90;;;;;;4987816;28;20336;-91
2024/02/01 01:29:05;;;;;;;;;;;7.80;99.90;;;;;;5005543;28;19949;-91
2024/02/01 01:31:31;;;;;;;;;;;7.80;99.90;;;;;;5016910;28;19956;-92
2024/02/01 01:33:56;;;;;;;;;;;7.80;99.90;;;;;;5021990;28;19913;-92
2024/02/01 01:36:24;;;;;;;;;;;7.80;99.90;;;;;;5015084;28;19913;-92
2024/02/01 01:38:50;;;;;;;;;;;7.70;99.90;;;;;;5009014;28;19929;-92
2024/02/01 01:41:15;;;;;;;;;;;7.70;99.90;;;;;;4991139;28;19914;-91
2024/02/01 01:43:41;;;;;;;;;;;7.70;99.90;;;;;;5012908;28;19928;-92
2024/02/01 01:46:07;;;;;;;;;;;7.70;99.90;;;;;;5013311;28;20437;-91
2024/02/01 01:48:33;;;;;;;;;;;7.70;99.90;;;;;;5013020;28;20423;-91
2024/02/01 01:50:59;;;;;;;;;;;7.70;99.90;;;;;;5008473;28;19914;-91
2024/02/01 01:53:26;;;;;;;;;;;7.70;99.90;;;;;;5007810;28;19921;-90
2024/02/01 01:55:52;;;;;;;;;;;7.70;99.90;;;;;;5017886;28;19909;-91
2024/02/01 01:58:20;;;;;;;;;;;7.80;99.90;;;;;;5011448;28;20572;-91
2024/02/01 02:00:46;;;;;;;;;;;7.70;99.90;;;;;;5012909;28;19938;-92
2024/02/01 02:03:12;;;;;;;;;;;7.80;99.90;;;;;;5016141;28;19984;-92
2024/02/01 02:05:37;;;;;;;;;;;7.70;99.90;;;;;;5019375;28;20503;-91
2024/02/01 02:08:03;;;;;;;;;;;7.80;99.90;;;;;;5000003;28;19924;-91
2024/02/01 02:10:29;;;;;;;;;;;7.80;99.90;;;;;;5013173;28;19910;-91
2024/02/01 02:12:55;;;;;;;;;;;7.80;99.90;;;;;;5000235;28;19914;-92
2024/02/01 02:15:21;;;;;;;;;;;7.80;99.90;;;;;;5024082;28;20473;-92
2024/02/01 02:17:50;;;;;;;;;;;7.90;99.90;;;;;;5007739;28;19914;-92
2024/02/01 02:20:19;;;;;;;;;;;7.80;99.90;;;;;;5011355;28;20024;-92
2024/02/01 02:22:45;;;;;;;;;;;7.80;99.90;;;;;;5007117;28;19976;-92
2024/02/01 02:25:13;;;;;;;;;;;7.80;99.90;;;;;;5010298;28;19957;-92
2024/02/01 02:27:43;;;;;;;;;;;7.80;99.90;;;;;;5011224;28;19913;-92
2024/02/01 02:30:09;;;;;;;;;;;7.80;99.90;;;;;;5000049;28;19917;-92
2024/02/01 02:32:35;;;;;;;;;;;7.80;99.90;;;;;;5027357;28;19909;-88
2024/02/01 02:35:00;;;;;;;;;;;7.90;99.90;;;;;;5011842;28;20526;-90
2024/02/01 02:37:26;;;;;;;;;;;7.90;99.90;;;;;;5027101;28;19919;-90
2024/02/01 02:39:51;;;;;;;;;;;7.90;99.90;;;;;;5010765;28;19915;-91
2024/02/01 02:42:17;;;;;;;;;;;8.00;99.90;;;;;;5008612;28;19987;-91
2024/02/01 02:44:43;;;;;;;;;;;7.90;99.90;;;;;;5013759;28;19921;-93
2024/02/01 02:47:08;;;;;;;;;;;8.00;99.90;;;;;;5012053;28;19941;-91
2024/02/01 02:49:36;;;;;;;;;;;7.90;99.90;;;;;;5023604;28;20266;-92
2024/02/01 02:52:02;;;;;;;;;;;7.90;99.90;;;;;;5013667;28;19909;-93
2024/02/01 02:54:28;;;;;;;;;;;7.90;99.90;;;;;;5028926;28;20031;-92
2024/02/01 02:56:53;;;;;;;;;;;7.90;99.90;;;;;;5004750;28;19917;-92
2024/02/01 02:59:22;;;;;;;;;;;7.90;99.90;;;;;;5011639;28;19920;-92
2024/02/01 03:01:47;;;;;;;;;;;8.00;99.90;;;;;;5009698;28;19928;-93
2024/02/01 03:04:13;;;;;;;;;;;8.00;99.90;;;;;;5009269;28;19918;-92
2024/02/01 03:06:39;;;;;;;;;;;7.90;99.90;;;;;;5027308;28;19967;-90
2024/02/01 03:09:06;;;;;;;;;;;8.00;99.90;;;;;;4995221;28;20012;-89
2024/02/01 03:11:34;;;;;;;;;;;8.00;99.90;;;;;;5004519;28;19913;-89
2024/02/01 03:14:00;;;;;;;;;;;8.00;99.90;;;;;;5008051;28;20332;-91
2024/02/01 03:16:26;;;;;;;;;;;8.00;99.90;;;;;;5010804;28;20562;-89
2024/02/01 03:18:52;;;;;;;;;;;8.00;99.90;;;;;;5010885;28;19913;-89
2024/02/01 03:21:18;;;;;;;;;;;8.00;99.90;;;;;;5010792;28;19963;-90
2024/02/01 03:23:44;;;;;;;;;;;8.00;99.90;;;;;;5008026;28;19913;-90
2024/02/01 03:26:10;;;;;;;;;;;8.00;99.90;;;;;;4998557;28;19936;-90
2024/02/01 03:28:39;;;;;;;;;;;8.10;99.90;;;;;;5008056;28;19949;-89
2024/02/01 03:31:05;;;;;;;;;;;8.10;99.90;;;;;;5010602;28;19925;-91
2024/02/01 03:33:38;;;;;;;;;;;8.10;99.90;;;;;;5011926;28;20365;-91
2024/02/01 03:36:08;;;;;;;;;;;8.10;99.90;;;;;;5008967;28;19918;-91
2024/02/01 03:38:33;;;;;;;;;;;8.20;99.90;;;;;;5008559;28;20282;-90
2024/02/01 03:40:59;;;;;;;;;;;8.20;99.90;;;;;;4995330;28;20235;-90
2024/02/01 03:43:27;;;;;;;;;;;8.20;99.90;;;;;;5007377;28;19913;-91
2024/02/01 03:45:54;;;;;;;;;;;8.20;99.90;;;;;;5005891;28;20024;-91
2024/02/01 03:48:20;;;;;;;;;;;8.20;99.90;;;;;;5010767;28;19905;-91
2024/02/01 03:50:45;;;;;;;;;;;8.20;99.90;;;;;;5017129;28;19919;-91
2024/02/01 03:53:12;;;;;;;;;;;8.20;99.90;;;;;;5022535;28;19918;-90
2024/02/01 03:55:38;;;;;;;;;;;8.30;99.90;;;;;;5032249;28;19924;-90
2024/02/01 03:58:04;;;;;;;;;;;8.20;99.90;;;;;;5016742;28;19909;-91
2024/02/01 04:00:30;;;;;;;;;;;8.20;99.90;;;;;;5017059;28;20623;-91
2024/02/01 04:02:56;;;;;;;;;;;8.30;99.90;;;;;;5013975;28;19914;-91
2024/02/01 04:05:29;;;;;;;;;;;8.40;99.90;;;;;;5013224;28;20590;-92
2024/02/01 04:07:55;;;;;;;;;;;8.30;99.90;;;;;;5011346;28;19945;-91
2024/02/01 04:10:23;;;;;;;;;;;8.30;99.90;;;;;;5017174;28;20519;-89
2024/02/01 04:12:49;;;;;;;;;;;8.30;99.90;;;;;;5018797;28;20502;-90
2024/02/01 04:15:15;;;;;;;;;;;8.40;99.90;;;;;;5001246;28;19948;-90
2024/02/01 04:17:41;;;;;;;;;;;8.40;99.90;;;;;;5017273;28;19917;-89
2024/02/01 04:20:08;;;;;;;;;;;8.40;99.90;;;;;;5018672;28;20373;-91
2024/02/01 04:22:33;;;;;;;;;;;8.40;99.90;;;;;;5017617;28;19914;-89
2024/02/01 04:24:59;;;;;;;;;;;8.40;99.90;;;;;;5013902;28;20296;-90
2024/02/01 04:27:25;;;;;;;;;;;8.40;99.90;;;;;;5019206;28;19960;-90
2024/02/01 04:29:50;;;;;;;;;;;8.40;99.90;;;;;;5014780;28;20483;-91
2024/02/01 04:32:16;;;;;;;;;;;8.40;99.90;;;;;;5015731;28;19917;-90
2024/02/01 04:34:42;;;;;;;;;;;8.40;99.90;;;;;;5014683;28;19988;-91
2024/02/01 04:37:07;;;;;;;;;;;8.50;99.90;;;;;;5012689;28;20392;-91
2024/02/01 04:39:36;;;;;;;;;;;8.40;99.90;;;;;;5030838;28;19912;-91
2024/02/01 04:42:17;;;;;;;;;;;8.30;99.90;;;;;;5023476;28;19920;-90
2024/02/01 04:44:46;;;;;;;;;;;8.40;99.90;;;;;;4997222;28;19914;-91
2024/02/01 04:47:12;;;;;;;;;;;8.30;99.90;;;;;;5022534;28;19917;-92
2024/02/01 04:49:38;;;;;;;;;;;8.30;99.90;;;;;;5017417;28;19913;-91
2024/02/01 04:52:04;;;;;;;;;;;8.40;99.90;;;;;;5018060;28;19916;-90
2024/02/01 04:54:29;;;;;;;;;;;8.30;99.90;;;;;;5017077;28;20526;-90
2024/02/01 04:56:56;;;;;;;;;;;8.50;99.90;;;;;;5009168;28;19918;-92
2024/02/01 04:59:22;;;;;;;;;;;8.40;99.90;;;;;;5015908;28;19921;-91
2024/02/01 05:01:47;;;;;;;;;;;8.30;99.90;;;;;;5017064;28;19913;-91
2024/02/01 05:04:13;;;;;;;;;;;8.40;99.90;;;;;;5013404;28;19914;-92
2024/02/01 05:06:39;;;;;;;;;;;8.40;99.90;;;;;;5007797;28;19921;-91
2024/02/01 05:09:23;;;;;;;;;;;8.30;99.90;;;;;;5024369;28;19909;-92
2024/02/01 05:11:55;;;;;;;;;;;8.40;99.90;;;;;;5006430;28;19921;-92
2024/02/01 05:14:20;;;;;;;;;;;8.30;99.90;;;;;;5009845;28;19917;-91
2024/02/01 05:16:51;;;;;;;;;;;8.40;99.90;;;;;;5011079;28;19959;-92
2024/02/01 05:19:17;;;;;;;;;;;8.40;99.90;;;;;;5015814;28;19914;-91
2024/02/01 05:21:43;;;;;;;;;;;8.30;99.90;;;;;;5032107;28;19920;-91
2024/02/01 05:24:13;;;;;;;;;;;8.40;99.90;;;;;;5015317;28;19914;-92
2024/02/01 05:26:53;;;;;;;;;;;8.40;99.90;;;;;;5014040;28;19921;-92
2024/02/01 05:29:22;;;;;;;;;;;8.40;99.90;;;;;;5010562;28;19917;-91
2024/02/01 05:31:54;;;;;;;;;;;8.50;99.90;;;;;;5013096;28;20443;-91
2024/02/01 05:34:20;;;;;;;;;;;8.40;99.90;;;;;;5007788;28;20063;-93
2024/02/01 05:36:46;;;;;;;;;;;8.50;99.90;;;;;;5014041;28;20408;-91
2024/02/01 05:39:24;;;;;;;;;;;8.60;99.90;;;;;;5013582;28;20380;-92
2024/02/01 05:41:56;;;;;;;;;;;8.50;99.90;;;;;;5000390;28;19913;-91
2024/02/01 05:44:23;;;;;;;;;;;8.50;99.90;;;;;;5015613;28;20004;-91
2024/02/01 05:46:50;;;;;;;;;;;8.50;99.90;;;;;;5010196;28;19921;-92
2024/02/01 05:49:18;;;;;;;;;;;8.50;99.90;;;;;;5011337;28;19913;-92
2024/02/01 05:51:48;;;;;;;;;;;8.40;99.90;;;;;;5014004;28;20377;-91
2024/02/01 05:54:15;;;;;;;;;;;8.40;99.90;;;;;;5015319;28;19908;-93
2024/02/01 05:56:43;;;;;;;;;;;8.40;99.90;;;;;;5009475;28;19914;-92
2024/02/01 05:59:13;;;;;;;;;;;8.40;99.90;;;;;;5009740;28;19926;-92
2024/02/01 06:01:39;;;;;;;;;;;8.40;99.90;;;;;;5007054;28;20415;-93
2024/02/01 06:04:06;;;;;;;;;;;8.40;99.90;;;;;;5020816;28;19917;-91
2024/02/01 06:06:39;;;;;;;;;;;8.30;99.90;;;;;;5015236;28;20361;-94
2024/02/01 06:09:10;;;;;;;;;;;8.30;99.90;;;;;;5028112;28;20397;-92
2024/02/01 06:11:45;;;;;;;;;;;8.20;99.90;;;;;;5012343;28;19917;-90
2024/02/01 06:14:14;;;;;;;;;;;8.20;99.90;;;;;;5006293;28;19917;-92
2024/02/01 06:16:39;;;;;;;;;;;8.10;99.90;;;;;;4999048;28;19917;-92
2024/02/01 06:19:05;;;;;;;;;;;8.00;99.90;;;;;;5008406;28;19914;-93
2024/02/01 06:21:31;;;;;;;;;;;8.00;99.90;;;;;;5009097;28;19967;-93
2024/02/01 06:23:57;;;;;;;;;;;8.10;99.90;;;;;;5018550;28;19921;-93
2024/02/01 06:26:26;;;;;;;;;;;8.00;99.90;;;;;;5014773;28;20014;-94
2024/02/01 06:28:53;;;;;;;;;;;8.00;99.90;;;;;;5014936;28;19967;-92
2024/02/01 06:31:19;;;;;;;;;;;7.90;99.90;;;;;;5013358;28;19917;-92
2024/02/01 06:33:44;;;;;;;;;;;7.90;99.90;;;;;;5016482;28;19916;-92
2024/02/01 06:36:16;;;;;;;;;;;7.80;99.90;;;;;;5016114;28;19908;-93
2024/02/01 06:38:55;;;;;;;;;;;7.80;99.90;;;;;;5008317;28;20000;-93
2024/02/01 06:44:20;;;;;;;;;;;7.70;99.90;;;;;;5012510;28;19967;-92
2024/02/01 06:52:13;;;;;;;;;;;7.70;99.90;;;;;;5018783;28;19976;-93
2024/02/01 06:55:06;;;;;;;;;;;7.70;99.90;;;;;;5012262;28;19909;-90
2024/02/01 06:57:44;;;;;;;;;;;7.70;99.90;;;;;;5013451;28;19927;-92
2024/02/01 07:00:37;;;;;;;;;;;7.60;99.90;;;;;;5010656;28;19950;-92
2024/02/01 07:03:04;;;;;;;;;;;7.60;99.90;;;;;;5004217;28;19913;-92
2024/02/01 07:08:14;;;;;;;;;;;7.50;99.90;;;;;;5001214;28;19989;-93
2024/02/01 07:10:43;;;;;;;;;;;7.60;99.90;;;;;;5008744;28;20047;-92
2024/02/01 07:13:21;;;;;;;;;;;7.50;99.90;;;;;;4996780;28;19921;-92
2024/02/01 07:15:54;;;;;;;;;;;7.60;99.90;;;;;;4991235;28;19913;-93
2024/02/01 07:18:30;;;;;;;;;;;7.50;99.90;;;;;;5003130;28;19913;-93
2024/02/01 07:20:56;;;;;;;;;;;7.50;99.90;;;;;;4996636;28;19937;-92
2024/02/01 07:26:16;;;;;;;;;;;7.40;99.90;;;;;;4956907;28;20032;-92
2024/02/01 07:59:07;;;;;;;;;;;7.20;99.90;;;;;;4953627;28;20053;-91
2024/02/01 08:02:01;;;;;;;;;;;7.20;99.90;;;;;;4952882;28;20555;-92
2024/02/01 08:07:43;;;;;;;;;;;7.20;99.90;;;;;;4993930;28;20007;-92
2024/02/01 08:09:49;;;;;;;;;;;7.20;99.90;;;;;;5012657;28;19921;-92
2024/02/01 08:12:15;;;;;;;;;;;7.20;99.90;;;;;;5013183;28;19909;-92
2024/02/01 08:14:40;;;;;;;;;;;7.20;99.90;;;;;;5011745;28;19922;-92
2024/02/01 08:17:06;;;;;;;;;;;7.20;99.90;;;;;;4994026;28;20419;-92
2024/02/01 08:19:31;;;;;;;;;;;7.20;99.90;;;;;;5034752;28;19964;-92
2024/02/01 08:22:00;;;;;;;;;;;7.20;99.90;;;;;;5021517;28;19952;-92
2024/02/01 08:24:26;;;;;;;;;;;7.20;99.90;;;;;;5013553;28;19905;-92
2024/02/01 11:46:59;;;;;;;;;;;9.30;99.90;;;;;;5057053;28;20031;-71
2024/02/01 11:49:26;;;;;;;;;;;9.90;99.90;;;;;;5021712;28;20003;-71
2024/02/01 11:51:51;;;;;;;;;;;10.00;99.90;;;;;;5039681;28;19920;-70
2024/02/01 11:54:17;;;;;;;;;;;10.30;99.90;;;;;;5039950;28;19984;-71
2024/02/01 11:56:45;;;;;;;;;;;10.60;99.90;;;;;;5052026;28;19917;-71
2024/02/01 11:59:10;;;;;;;;;;;10.90;99.90;;;;;;5048769;28;19921;-71
2024/02/01 12:01:36;;;;;;;;;;;11.10;99.90;;;;;;5045080;28;20036;-71
2024/02/01 12:04:02;;;;;;;;;;;11.20;99.90;;;;;;5047551;28;21657;-71
2024/02/01 12:06:27;;;;;;;;;;;11.00;99.90;;;;;;5040357;28;19917;-70
2024/02/01 12:08:59;;;;;;;;;;;11.20;99.90;;;;;;5038295;28;19921;-71
2024/02/01 12:11:34;;;;;;;;;;;11.40;99.90;;;;;;5042446;28;19916;-71
2024/02/01 12:14:11;;;;;;;;;;;11.40;99.40;;;;;;5033782;28;19917;-71
2024/02/01 12:16:37;;;;;;;;;;;11.50;99.20;;;;;;5037606;28;19951;-71
2024/02/01 12:19:03;;;;;;;;;;;11.20;99.00;;;;;;5041111;28;19924;-71
2024/02/01 12:21:29;;;;;;;;;;;10.90;99.50;;;;;;5053841;28;20348;-71
2024/02/01 12:24:01;;;;;;;;;;;11.10;99.40;;;;;;5036057;28;19921;-71
2024/02/01 12:26:27;;;;;;;;;;;11.00;99.50;;;;;;5047638;28;19916;-70
2024/02/01 12:28:56;;;;;;;;;;;11.00;99.10;;;;;;5043087;28;19920;-71
2024/02/01 12:31:22;;;;;;;;;;;11.10;99.00;;;;;;5051279;28;19952;-71
2024/02/01 12:33:49;;;;;;;;;;;10.90;98.80;;;;;;5044802;28;19978;-70
2024/02/01 12:36:14;;;;;;;;;;;10.90;99.00;;;;;;5047099;28;20364;-70
2024/02/01 12:38:48;;;;;;;;;;;10.60;98.90;;;;;;5044156;28;19913;-70
2024/02/01 12:41:14;;;;;;;;;;;10.60;99.50;;;;;;5036019;28;19913;-70
2024/02/01 12:43:40;;;;;;;;;;;10.40;99.50;;;;;;5042821;28;20044;-70
2024/02/01 12:46:05;;;;;;;;;;;10.10;99.40;;;;;;5040186;28;20007;-70
2024/02/01 12:48:31;;;;;;;;;;;9.80;99.90;;;;;;5029510;28;19924;-70
2024/02/01 12:50:59;;;;;;;;;;;9.50;99.90;;;;;;5030500;28;20060;-70
2024/02/01 12:53:24;;;;;;;;;;;9.50;99.90;;;;;;5028263;28;19939;-70
2024/02/01 12:55:50;;;;;;;;;;;9.50;99.90;;;;;;5030133;28;19921;-70
2024/02/01 12:58:18;;;;;;;;;;;9.70;99.90;;;;;;5026252;28;19917;-70
2024/02/01 13:00:43;;;;;;;;;;;10.00;99.90;;;;;;5030791;28;20632;-70
2024/02/01 13:03:10;;;;;;;;;;;10.30;99.90;;;;;;5028413;28;19917;-70
2024/02/01 13:05:38;;;;;;;;;;;10.60;99.90;;;;;;5028661;28;19924;-71
2024/02/01 13:08:06;;;;;;;;;;;10.70;99.20;;;;;;5029889;28;19917;-71
2024/02/01 13:10:38;;;;;;;;;;;10.90;99.40;;;;;;5027646;28;20394;-70
2024/02/01 13:13:04;;;;;;;;;;;11.00;99.40;;;;;;5031931;28;20066;-71
2024/02/01 13:15:32;;;;;;;;;;;11.10;98.70;;;;;;5027372;28;20421;-71
2024/02/01 13:17:58;;;;;;;;;;;11.30;99.20;;;;;;5026258;28;19967;-71
2024/02/01 13:20:26;;;;;;;;;;;11.50;99.30;;;;;;5023221;28;20348;-71
2024/02/01 13:22:54;;;;;;;;;;;11.70;98.90;;;;;;5029046;28;19913;-69
2024/02/01 13:25:20;;;;;;;;;;;11.90;98.30;;;;;;5032745;28;19920;-69
2024/02/01 13:27:48;;;;;;;;;;;12.20;98.00;;;;;;5037371;28;19917;-71
2024/02/01 13:30:15;;;;;;;;;;;11.90;97.10;;;;;;5027719;28;20244;-71
2024/02/01 13:32:42;;;;;;;;;;;11.90;97.50;;;;;;5028693;28;19964;-71
2024/02/01 13:35:10;;;;;;;;;;;11.90;97.50;;;;;;5032720;28;19917;-71
2024/02/01 13:37:35;;;;;;;;;;;12.20;97.30;;;;;;5031236;28;19963;-71
2024/02/01 13:40:05;;;;;;;;;;;12.20;96.50;;;;;;5027089;28;19909;-71
2024/02/01 13:42:32;;;;;;;;;;;12.20;96.10;;;;;;5026176;28;19909;-71
2024/02/01 13:44:58;;;;;;;;;;;12.30;96.40;;;;;;5028735;28;19913;-71
2024/02/01 13:47:24;;;;;;;;;;;12.00;95.80;;;;;;5031814;28;19967;-71
2024/02/01 13:49:51;;;;;;;;;;;11.90;95.60;;;;;;5031527;28;19913;-71
2024/02/01 13:52:17;;;;;;;;;;;12.30;96.70;;;;;;5026942;28;20015;-71
2024/02/01 13:54:42;;;;;;;;;;;12.40;95.60;;;;;;5032636;28;20011;-71
2024/02/01 13:57:08;;;;;;;;;;;12.60;95.90;;;;;;5042349;28;19924;-71
2024/02/01 13:59:34;;;;;;;;;;;12.70;95.60;;;;;;5029977;28;19909;-71
2024/02/01 14:02:02;;;;;;;;;;;12.70;95.20;;;;;;5024033;28;20360;-71
2024/02/01 14:04:30;;;;;;;;;;;12.70;95.30;;;;;;5032107;28;20011;-72
2024/02/01 14:06:57;;;;;;;;;;;12.80;95.20;;;;;;5032311;28;19996;-71
2024/02/01 14:09:23;;;;;;;;;;;12.90;94.90;;;;;;5033836;28;19905;-71
2024/02/01 14:11:52;;;;;;;;;;;12.90;95.20;;;;;;5028439;28;19913;-71
2024/02/01 14:14:17;;;;;;;;;;;12.90;95.40;;;;;;5028617;28;19917;-70
2024/02/01 14:16:45;;;;;;;16.00;3.13;;;13.00;95.00;;;;;;5028873;28;19913;-71
2024/02/01 14:19:10;;;;;;;17.77;3.35;;;13.00;94.80;;;;;;5030057;28;20116;-71
2024/02/01 14:21:36;;;;;;;12.73;2.58;;;12.90;95.00;;;;;;5030522;28;20144;-71
2024/02/01 14:24:04;;;;;;;21.58;4.80;;;12.70;94.60;;;;;;5033118;28;20063;-71
2024/02/01 14:26:29;;;;;;;23.33;3.92;;;12.50;94.70;;;;;;5031816;28;20056;-70
2024/02/01 14:28:56;;;;;;;23.90;3.50;;;12.30;94.80;;;;;;5026120;28;20042;-70
2024/02/01 14:31:22;;;;;;;21.85;3.53;;;12.10;95.10;;;;;;5032732;28;20112;-70
2024/02/01 14:33:48;;;;;;;21.05;3.30;;;11.70;95.20;;;;;;5028918;28;20256;-70
2024/02/01 14:36:13;;;;;;;20.95;3.35;;;11.50;95.50;;;;;;5036646;28;20056;-70
2024/02/01 14:38:46;;;;;;;26.20;3.72;;;11.40;96.00;;;;;;5029221;28;20072;-71
2024/02/01 14:41:12;;;;;;;22.83;3.83;;;11.00;96.20;;;;;;5027451;28;20083;-70
2024/02/01 14:43:39;;;;;;;16.67;2.60;;;10.80;96.60;;;;;;5025094;28;20026;-71
2024/02/01 14:46:05;;;;;;;22.90;2.42;;;10.60;96.70;;;;;;5029719;28;20037;-70
2024/02/01 14:48:31;;;;;;;30.77;3.78;;;10.30;96.80;;;;;;5029508;28;20046;-70
2024/02/01 14:50:56;;;;;;;29.13;3.80;;;10.00;97.30;;;;;;5029028;28;20717;-70
2024/02/01 14:53:24;;;;;;;18.40;2.65;;;9.80;98.10;;;;;;5032043;28;20037;-70
2024/02/01 14:55:50;;;;;;;29.55;3.08;;;9.80;98.50;;;;;;5026991;28;20127;-70
2024/02/01 14:58:15;;;;;;;22.98;3.50;;;9.60;98.60;;;;;;5040172;28;20053;-70
2024/02/01 15:00:41;;;;;;;26.85;2.95;;;9.50;98.90;;;;;;5035126;28;20078;-70
2024/02/01 15:03:07;;;;;;;25.52;3.38;;;9.50;98.80;;;;;;5030053;28;20576;-70
2024/02/01 15:05:39;;;;;;;28.95;3.92;;;9.50;98.90;;;;;;5032594;28;20053;-70
2024/02/01 15:08:08;;;;;;;18.42;3.15;;;9.40;98.90;;;;;;5026430;28;20025;-70
2024/02/01 15:10:35;;;;;;;32.47;4.55;;;9.30;99.20;;;;;;5023402;28;20032;-70
2024/02/01 15:13:02;;;;;;;18.33;3.20;;;9.20;99.30;;;;;;5013901;22;20045;-70
2024/02/01 15:15:33;;;;;;;20.08;3.05;;;9.10;99.40;;;;;;5018275;28;20033;-70
2024/02/01 15:18:01;;;;;;;18.13;2.90;;;9.20;99.50;;;;;;5017056;28;20477;-70
2024/02/01 15:20:36;;;;;;;29.70;3.20;;;9.10;99.50;;;;;;5007612;28;20065;-70
2024/02/01 15:23:02;;;;;;;22.60;4.55;;;9.10;99.60;;;;;;5007421;28;20049;-70
2024/02/01 15:25:30;;;;;;;24.23;3.45;;;9.10;99.70;;;;;;5012153;28;20041;-70
2024/02/01 15:27:56;;;;;;;19.40;3.75;;;9.10;99.70;;;;;;5011869;28;20126;-70
2024/02/01 15:30:23;;;;;;;25.10;3.95;;;9.00;99.70;;;;;;5014407;28;20022;-70
2024/02/01 15:32:48;;;;;;;25.23;3.95;;;9.00;99.90;;;;;;5008910;28;20154;-70
2024/02/01 15:35:14;;;;;;;19.50;2.60;;;9.00;99.90;;;;;;5009524;28;20532;-70
2024/02/01 15:37:41;;;;;;;24.27;3.15;;;8.90;99.80;;;;;;5005423;28;20026;-70
2024/02/01 15:40:10;;;;;;;14.02;2.55;;;9.00;99.90;;;;;;5011074;28;20041;-70
2024/02/01 15:42:35;;;;;;;21.33;3.33;;;8.90;99.90;;;;;;5016337;28;20076;-70
2024/02/01 15:45:06;;;;;;;18.63;3.08;;;8.90;99.90;;;;;;5006213;28;22169;-70
2024/02/01 15:47:34;;;;;;;25.77;3.17;;;8.80;99.90;;;;;;5009725;28;20038;-70
2024/02/01 15:50:00;;;;;;;20.23;3.08;;;8.80;99.90;;;;;;4988391;28;20034;-70
2024/02/01 15:52:26;;;;;;;28.98;2.92;;;8.80;99.90;;;;;;5009766;28;20041;-69
2024/02/01 15:54:52;;;;;;;28.73;3.85;;;8.80;99.90;;;;;;5006079;28;20396;-70
2024/02/01 15:57:18;;;;;;;26.50;3.40;;;8.70;99.90;;;;;;5013486;28;20030;-70
2024/02/01 15:59:47;;;;;;;22.70;3.13;;;8.70;99.90;;;;;;5008054;28;20482;-69
2024/02/01 16:02:12;;;;;;;31.95;3.55;;;8.70;99.90;;;;;;5010789;28;20419;-69
2024/02/01 16:04:38;;;;;;;24.15;3.55;;;8.60;99.90;;;;;;5017856;28;20037;-69
2024/02/01 16:07:06;;;;;;;24.75;3.75;;;8.50;99.90;;;;;;5010914;28;20042;-70
2024/02/01 16:09:38;;;;;;;17.50;3.35;;;8.60;99.90;;;;;;5008115;28;20025;-70
2024/02/01 16:12:04;;;;;;;24.13;3.17;;;8.50;99.90;;;;;;5015715;28;20038;-70
2024/02/01 16:14:31;;;;;;;19.63;2.83;;;8.40;99.90;;;;;;5014652;28;20042;-69
2024/02/01 16:17:00;;;;;;;17.10;3.03;;;8.40;99.90;;;;;;5004608;28;20146;-70
2024/02/01 16:19:38;;;;;;;25.23;4.03;;;8.30;99.90;;;;;;5012843;28;20329;-70
2024/02/01 16:22:07;;;;;;;26.77;3.85;;;8.30;99.90;;;;;;5009326;28;20116;-70
2024/02/01 16:24:36;;;;;;;22.15;3.35;;;8.10;99.90;;;;;;5011220;28;20338;-70
2024/02/01 16:27:17;;;;;;;23.08;3.50;;;8.10;99.90;;;;;;5011089;28;20509;-71
2024/02/01 16:29:56;;;;;;;21.42;3.40;;;8.10;99.90;;;;;;5009961;28;20030;-69
2024/02/01 16:32:33;;;;;;;25.65;3.05;;;8.10;99.90;;;;;;5011854;28;20041;-70
2024/02/01 16:34:59;;;;;;;29.45;3.42;;;8.10;99.90;;;;;;5003049;28;20502;-70
2024/02/01 16:37:25;;;;;;;27.23;3.05;;;8.00;99.90;;;;;;5016511;28;20150;-70
2024/02/01 16:39:55;;;;;;;26.00;3.17;;;8.00;99.90;;;;;;5012512;28;20109;-70
2024/02/01 16:42:20;;;;;;;29.58;3.13;;;8.00;99.90;;;;;;5014230;28;20029;-69
2024/02/01 16:44:48;;;;;;;23.10;3.25;;;8.00;99.90;;;;;;5013325;28;20125;-69
2024/02/01 16:47:39;;;;;;;25.15;2.97;;;7.90;99.90;;;;;;5009897;28;20037;-69
2024/02/01 16:50:48;;;;;;;20.60;3.60;;;7.80;99.90;;;;;;5005756;28;20512;-69
2024/02/01 16:53:40;;;;;;;28.90;3.53;;;7.80;99.90;;;;;;5007953;28;20038;-70
2024/02/01 16:56:07;;;;;;;30.30;2.67;;;7.80;99.90;;;;;;5006232;28;20083;-69
2024/02/01 16:58:48;;;;;;;14.20;2.75;;;7.70;99.90;;;;;;5004689;28;20039;-69
2024/02/01 17:01:25;;;;;;;24.60;2.83;;;7.70;99.90;;;;;;5005471;28;20103;-70
2024/02/01 17:03:51;;;;;;;;;;;7.70;99.90;;;;;;4998903;28;20109;-70
2024/02/01 17:06:20;;;;;;;15.77;3.25;;;7.70;99.90;;;;;;5005616;28;19984;-70
2024/02/01 17:08:53;;;;;;;26.75;2.88;;;7.70;99.90;;;;;;5010740;28;20144;-69
2024/02/01 17:11:26;;;;;;;15.95;2.75;;;7.60;99.90;;;;;;5012967;28;20546;-69
2024/02/01 17:13:54;;;;;;;19.52;2.55;;;7.60;99.90;;;;;;5006722;28;20034;-69
2024/02/01 17:16:38;;;;;;;22.77;2.95;;;7.60;99.90;;;;;;5007587;28;20188;-69
2024/02/01 17:19:04;;;;;;;12.20;2.97;;;7.50;99.90;;;;;;5012977;28;20045;-69
2024/02/01 17:21:30;;;;;;;16.48;2.85;;;7.50;99.90;;;;;;5005739;28;20072;-70
2024/02/01 17:23:56;;;;;;;23.48;3.42;;;7.50;99.90;;;;;;5016619;28;20373;-69
2024/02/01 17:26:26;;;;;;;25.58;3.15;;;7.50;99.90;;;;;;5012710;28;20116;-69
2024/02/01 17:28:52;;;;;;;18.23;3.50;;;7.40;99.90;;;;;;5009490;28;20112;-69
2024/02/01 17:31:29;;;;;;;25.85;3.10;;;7.50;99.90;;;;;;5014070;28;20504;-69
2024/02/01 17:34:03;;;;;;;25.58;2.97;;;7.40;99.90;;;;;;5006044;28;20617;-69
2024/02/01 17:36:42;;;;;;;27.73;3.85;;;7.40;99.90;;;;;;5007848;28;20671;-69
2024/02/01 17:39:12;;;;;;;25.77;3.63;;;7.40;99.90;;;;;;5004991;28;20033;-70
2024/02/01 17:41:40;;;;;;;24.08;2.90;;;7.30;99.90;;;;;;5005597;28;20037;-70
2024/02/01 17:44:30;;;;;;;21.05;3.83;;;7.30;99.90;;;;;;5009462;28;20042;-70
2024/02/01 17:47:05;;;;;;;29.52;3.55;;;7.20;99.90;;;;;;5011737;28;20634;-70
2024/02/01 17:49:52;;;;;;;23.90;3.33;;;7.30;99.90;;;;;;5008380;28;20080;-69
2024/02/01 17:52:30;;;;;;;29.85;3.53;;;7.20;99.90;;;;;;5004379;28;20149;-70
2024/02/01 17:54:59;;;;;;;28.17;4.15;;;7.20;99.90;;;;;;5013109;28;20068;-70
2024/02/01 17:57:30;;;;;;;25.48;3.28;;;7.20;99.90;;;;;;5015301;28;20041;-70
2024/02/01 17:59:56;;;;;;;31.35;3.28;;;7.20;99.90;;;;;;5009309;28;20100;-70
2024/02/01 18:02:23;;;;;;;27.52;4.00;;;7.20;99.90;;;;;;5008644;28;20658;-70
2024/02/01 18:04:50;;;;;;;21.13;3.40;;;7.20;99.90;;;;;;5018581;28;20132;-70
2024/02/01 18:07:18;;;;;;;27.33;3.50;;;7.10;99.90;;;;;;5006546;28;20113;-70
2024/02/01 18:09:48;;;;;;;33.80;4.10;;;7.10;99.90;;;;;;5010516;28;20104;-70